
Distance (Route):
Temperature : -54.5°C
Humidity : 5.7%
Pressure : 178.7hPa| Receiver | Frames | First received | Last received |
|---|---|---|---|
| PU1XMG-16 | 284 | 2026-09-01 23:36:03 | 2026-09-02 00:11:09 |
| Receiver | Date | Latitude | Longitude | Direction | Speed | Altitude | Climb | Temperature | Humidity | Pressure | Voltage | Killtimer | Uptime | BKT | XDATA |
|---|---|---|---|---|---|---|---|---|---|---|---|---|---|---|---|
| PU1XMG-16 | 2026-09-02 00:11:09 | -22.96541 | -42.64804 | 87° | 148km/h | 13100m | 5.8m/s | -54.5°C | 5.7% | 178.7hPa | 0V | 00:00:00 | 00:00:00 | 00:00:00 | |
| PU1XMG-16 | 2026-09-02 00:11:03 | -22.96540 | -42.65088 | 92° | 150km/h | 13060m | 6.8m/s | -54.2°C | 5.8% | 179.8hPa | 0V | 00:00:00 | 00:00:00 | 00:00:00 | |
| PU1XMG-16 | 2026-09-02 00:10:56 | -22.96545 | -42.65319 | 89° | 137km/h | 13024m | 6.5m/s | -54.0°C | 5.7% | 180.9hPa | 0V | 00:00:00 | 00:00:00 | 00:00:00 | |
| PU1XMG-16 | 2026-09-02 00:08:58 | -22.96784 | -42.70257 | 84° | 166km/h | 12336m | 6.7m/s | -49.3°C | 4.6% | 201.0hPa | 0V | 00:00:00 | 00:00:00 | 00:00:00 | |
| PU1XMG-16 | 2026-09-02 00:08:31 | -22.96939 | -42.71493 | 84° | 173km/h | 12187m | 4.4m/s | -48.7°C | 4.8% | 205.6hPa | 0V | 00:00:00 | 00:00:00 | 00:00:00 | |
| PU1XMG-16 | 2026-09-02 00:08:04 | -22.97097 | -42.72781 | 82° | 179km/h | 12062m | 4.2m/s | -47.9°C | 5.0% | 209.5hPa | 0V | 00:00:00 | 00:00:00 | 00:00:00 | |
| PU1XMG-16 | 2026-09-02 00:06:31 | -22.97756 | -42.77262 | 80° | 173km/h | 11580m | 7.0m/s | -44.3°C | 4.3% | 225.1hPa | 0V | 00:00:00 | 00:00:00 | 00:00:00 | |
| PU1XMG-16 | 2026-09-02 00:06:06 | -22.97926 | -42.78458 | 84° | 181km/h | 11456m | 5.5m/s | -43.4°C | 4.1% | 229.3hPa | 0V | 00:00:00 | 00:00:00 | 00:00:00 | |
| PU1XMG-16 | 2026-09-02 00:06:01 | -22.97972 | -42.78749 | 82° | 172km/h | 11426m | 7.2m/s | -43.1°C | 3.9% | 230.4hPa | 0V | 00:00:00 | 00:00:00 | 00:00:00 | |
| PU1XMG-16 | 2026-09-02 00:05:06 | -22.98221 | -42.81400 | 90° | 157km/h | 11113m | 9.0m/s | -41.0°C | 3.5% | 241.3hPa | 0V | 00:00:00 | 00:00:00 | 00:00:00 | |
| PU1XMG-16 | 2026-09-02 00:05:00 | -22.98229 | -42.81620 | 88° | 164km/h | 11078m | 6.9m/s | -40.8°C | 3.4% | 242.6hPa | 0V | 00:00:00 | 00:00:00 | 00:00:00 | |
| PU1XMG-16 | 2026-09-02 00:04:47 | -22.98240 | -42.82190 | 89° | 159km/h | 11004m | 5.8m/s | -40.2°C | 3.4% | 245.2hPa | 0V | 00:00:00 | 00:00:00 | 00:00:00 | |
| PU1XMG-16 | 2026-09-02 00:04:42 | -22.98240 | -42.82405 | 92° | 153km/h | 10981m | 6.1m/s | -40.0°C | 3.4% | 246.1hPa | 0V | 00:00:00 | 00:00:00 | 00:00:00 | |
| PU1XMG-16 | 2026-09-02 00:02:25 | -22.97488 | -42.88175 | 113° | 137km/h | 10100m | 8.6m/s | -36.3°C | 12.3% | 279.4hPa | 0V | 00:00:00 | 00:00:00 | 00:00:00 | |
| PU1XMG-16 | 2026-09-02 00:02:17 | -22.97414 | -42.88397 | 114° | 148km/h | 10059m | 4.5m/s | -36.1°C | 13.6% | 281.1hPa | 0V | 00:00:00 | 00:00:00 | 00:00:00 | |
| PU1XMG-16 | 2026-09-02 00:02:04 | -22.97263 | -42.88822 | 114° | 141km/h | 9989m | 3.7m/s | -35.7°C | 23.3% | 284.0hPa | 0V | 00:00:00 | 00:00:00 | 00:00:00 | |
| PU1XMG-16 | 2026-09-02 00:01:59 | -22.97192 | -42.88997 | 116° | 131km/h | 9957m | 6.1m/s | -35.5°C | 30.1% | 285.3hPa | 0V | 00:00:00 | 00:00:00 | 00:00:00 | |
| PU1XMG-16 | 2026-09-02 00:01:55 | -22.97110 | -42.89210 | 112° | 146km/h | 9915m | 4.6m/s | -35.5°C | 33.3% | 287.0hPa | 0V | 00:00:00 | 00:00:00 | 00:00:00 | |
| PU1XMG-16 | 2026-09-02 00:01:52 | -22.97030 | -42.89398 | 118° | 148km/h | 9883m | 7.3m/s | -35.3°C | 39.6% | 288.3hPa | 0V | 00:00:00 | 00:00:00 | 00:00:00 | |
| PU1XMG-16 | 2026-09-02 00:01:25 | -22.96668 | -42.90156 | 119° | 137km/h | 9755m | 6.2m/s | -34.4°C | 84.4% | 293.5hPa | 0V | 00:00:00 | 00:00:00 | 00:00:00 | |
| PU1XMG-16 | 2026-09-02 00:01:18 | -22.96561 | -42.90323 | 127° | 166km/h | 9721m | 5.8m/s | -34.3°C | 92.1% | 294.9hPa | 0V | 00:00:00 | 00:00:00 | 00:00:00 | |
| PU1XMG-16 | 2026-09-02 00:01:14 | -22.96430 | -42.90540 | 120° | 137km/h | 9686m | 7.5m/s | -33.9°C | 90.7% | 296.6hPa | 0V | 00:00:00 | 00:00:00 | 00:00:00 | |
| PU1XMG-16 | 2026-09-02 00:01:06 | -22.96341 | -42.90694 | 129° | 141km/h | 9650m | 7.4m/s | -33.7°C | 90.1% | 298.0hPa | 0V | 00:00:00 | 00:00:00 | 00:00:00 | |
| PU1XMG-16 | 2026-09-02 00:00:57 | -22.96136 | -42.90986 | 126° | 130km/h | 9586m | 8.6m/s | -33.1°C | 87.6% | 300.8hPa | 0V | 00:00:00 | 00:00:00 | 00:00:00 | |
| PU1XMG-16 | 2026-09-02 00:00:36 | -22.95656 | -42.91664 | 133° | 135km/h | 9431m | 6.6m/s | -32.0°C | 80.6% | 307.4hPa | 0V | 00:00:00 | 00:00:00 | 00:00:00 | |
| PU1XMG-16 | 2026-09-02 00:00:28 | -22.95442 | -42.91964 | 130° | 141km/h | 9362m | 6.8m/s | -31.5°C | 84.3% | 310.4hPa | 0V | 00:00:00 | 00:00:00 | 00:00:00 | |
| PU1XMG-16 | 2026-09-02 00:00:22 | -22.95297 | -42.92168 | 132° | 146km/h | 9320m | 5.7m/s | -31.1°C | 88.1% | 312.2hPa | 0V | 00:00:00 | 00:00:00 | 00:00:00 | |
| PU1XMG-16 | 2026-09-02 00:00:17 | -22.95185 | -42.92317 | 127° | 128km/h | 9288m | 6.2m/s | -30.8°C | 87.1% | 313.6hPa | 0V | 00:00:00 | 00:00:00 | 00:00:00 | |
| PU1XMG-16 | 2026-09-02 00:00:09 | -22.95082 | -42.92454 | 131° | 137km/h | 9255m | 5.3m/s | -30.5°C | 89.9% | 315.1hPa | 0V | 00:00:00 | 00:00:00 | 00:00:00 | |
| PU1XMG-16 | 2026-09-02 00:00:00 | -22.94943 | -42.92637 | 128° | 139km/h | 9222m | 7.2m/s | -30.2°C | 90.1% | 316.5hPa | 0V | 00:00:00 | 00:00:00 | 00:00:00 | |
| PU1XMG-16 | 2026-09-01 23:59:55 | -22.94838 | -42.92790 | 133° | 139km/h | 9185m | 8.2m/s | -29.8°C | 87.7% | 318.2hPa | 0V | 00:00:00 | 00:00:00 | 00:00:00 | |
| PU1XMG-16 | 2026-09-01 23:59:49 | -22.94703 | -42.92956 | 129° | 142km/h | 9133m | 9.8m/s | -29.4°C | 84.6% | 320.4hPa | 0V | 00:00:00 | 00:00:00 | 00:00:00 | |
| PU1XMG-16 | 2026-09-01 23:59:44 | -22.94581 | -42.93106 | 132° | 144km/h | 9097m | 5.7m/s | -29.1°C | 85.7% | 322.0hPa | 0V | 00:00:00 | 00:00:00 | 00:00:00 | |
| PU1XMG-16 | 2026-09-01 23:59:36 | -22.94412 | -42.93367 | 123° | 133km/h | 9040m | 8.4m/s | -28.6°C | 81.8% | 324.7hPa | 0V | 00:00:00 | 00:00:00 | 00:00:00 | |
| PU1XMG-16 | 2026-09-01 23:59:19 | -22.94069 | -42.93847 | 124° | 120km/h | 8923m | 4.6m/s | -27.4°C | 86.9% | 330.0hPa | 0V | 00:00:00 | 00:00:00 | 00:00:00 | |
| PU1XMG-16 | 2026-09-01 23:59:13 | -22.93958 | -42.93991 | 133° | 117km/h | 8889m | 8.0m/s | -27.1°C | 87.1% | 331.6hPa | 0V | 00:00:00 | 00:00:00 | 00:00:00 | |
| PU1XMG-16 | 2026-09-01 23:59:06 | -22.93801 | -42.94199 | 131° | 117km/h | 8825m | 9.2m/s | -26.6°C | 88.1% | 334.5hPa | 0V | 00:00:00 | 00:00:00 | 00:00:00 | |
| PU1XMG-16 | 2026-09-01 23:59:01 | -22.93708 | -42.94329 | 128° | 124km/h | 8780m | 9.8m/s | -26.3°C | 86.2% | 336.6hPa | 0V | 00:00:00 | 00:00:00 | 00:00:00 | |
| PU1XMG-16 | 2026-09-01 23:58:55 | -22.93599 | -42.94469 | 132° | 137km/h | 8741m | 6.1m/s | -26.0°C | 85.5% | 338.5hPa | 0V | 00:00:00 | 00:00:00 | 00:00:00 | |
| PU1XMG-16 | 2026-09-01 23:58:50 | -22.93488 | -42.94639 | 124° | 117km/h | 8697m | 8.4m/s | -25.7°C | 82.9% | 340.5hPa | 0V | 00:00:00 | 00:00:00 | 00:00:00 | |
| PU1XMG-16 | 2026-09-01 23:58:40 | -22.93301 | -42.94853 | 137° | 119km/h | 8636m | 8.6m/s | -25.2°C | 83.0% | 343.3hPa | 0V | 00:00:00 | 00:00:00 | 00:00:00 | |
| PU1XMG-16 | 2026-09-01 23:58:34 | -22.93166 | -42.94993 | 138° | 135km/h | 8589m | 8.2m/s | -24.9°C | 82.3% | 345.6hPa | 0V | 00:00:00 | 00:00:00 | 00:00:00 | |
| PU1XMG-16 | 2026-09-01 23:58:29 | -22.93046 | -42.95118 | 130° | 122km/h | 8556m | 6.8m/s | -24.6°C | 83.3% | 347.2hPa | 0V | 00:00:00 | 00:00:00 | 00:00:00 | |
| PU1XMG-16 | 2026-09-01 23:58:23 | -22.92930 | -42.95264 | 137° | 115km/h | 8512m | 7.3m/s | -24.3°C | 81.7% | 349.3hPa | 0V | 00:00:00 | 00:00:00 | 00:00:00 | |
| PU1XMG-16 | 2026-09-01 23:58:18 | -22.92832 | -42.95387 | 131° | 119km/h | 8478m | 8.4m/s | -24.0°C | 82.3% | 351.0hPa | 0V | 00:00:00 | 00:00:00 | 00:00:00 | |
| PU1XMG-16 | 2026-09-01 23:58:12 | -22.92714 | -42.95530 | 131° | 122km/h | 8430m | 8.1m/s | -23.7°C | 82.2% | 353.3hPa | 0V | 00:00:00 | 00:00:00 | 00:00:00 | |
| PU1XMG-16 | 2026-09-01 23:58:06 | -22.92587 | -42.95690 | 127° | 115km/h | 8391m | 5.8m/s | -23.4°C | 82.9% | 355.2hPa | 0V | 00:00:00 | 00:00:00 | 00:00:00 | |
| PU1XMG-16 | 2026-09-01 23:58:01 | -22.92497 | -42.95802 | 137° | 119km/h | 8354m | 9.0m/s | -23.1°C | 82.7% | 356.8hPa | 0V | 00:00:00 | 00:00:00 | 00:00:00 | |
| PU1XMG-16 | 2026-09-01 23:57:56 | -22.92369 | -42.95957 | 126° | 113km/h | 8312m | 7.8m/s | -22.8°C | 82.9% | 358.8hPa | 0V | 00:00:00 | 00:00:00 | 00:00:00 | |
| PU1XMG-16 | 2026-09-01 23:57:50 | -22.92283 | -42.96067 | 136° | 111km/h | 8277m | 9.3m/s | -22.5°C | 83.8% | 360.5hPa | 0V | 00:00:00 | 00:00:00 | 00:00:00 | |
| PU1XMG-16 | 2026-09-01 23:57:44 | -22.92153 | -42.96214 | 127° | 115km/h | 8233m | 4.7m/s | -22.2°C | 85.3% | 362.8hPa | 0V | 00:00:00 | 00:00:00 | 00:00:00 | |
| PU1XMG-16 | 2026-09-01 23:57:39 | -22.92062 | -42.96327 | 141° | 115km/h | 8199m | 4.8m/s | -21.9°C | 85.5% | 364.4hPa | 0V | 00:00:00 | 00:00:00 | 00:00:00 | |
| PU1XMG-16 | 2026-09-01 23:57:34 | -22.91925 | -42.96476 | 129° | 126km/h | 8159m | 8.0m/s | -21.6°C | 85.1% | 366.5hPa | 0V | 00:00:00 | 00:00:00 | 00:00:00 | |
| PU1XMG-16 | 2026-09-01 23:57:28 | -22.91823 | -42.96619 | 134° | 100km/h | 8116m | 5.7m/s | -21.3°C | 85.7% | 368.4hPa | 0V | 00:00:00 | 00:00:00 | 00:00:00 | |
| PU1XMG-16 | 2026-09-01 23:57:19 | -22.91660 | -42.96795 | 135° | 131km/h | 8067m | 8.5m/s | -20.9°C | 85.0% | 371.0hPa | 0V | 00:00:00 | 00:00:00 | 00:00:00 | |
| PU1XMG-16 | 2026-09-01 23:57:14 | -22.91564 | -42.96916 | 135° | 108km/h | 8032m | 7.1m/s | -20.7°C | 85.8% | 372.7hPa | 0V | 00:00:00 | 00:00:00 | 00:00:00 | |
| PU1XMG-16 | 2026-09-01 23:57:08 | -22.91425 | -42.97056 | 133° | 128km/h | 7997m | 5.8m/s | -20.4°C | 85.4% | 374.6hPa | 0V | 00:00:00 | 00:00:00 | 00:00:00 | |
| PU1XMG-16 | 2026-09-01 23:57:03 | -22.91327 | -42.97174 | 140° | 117km/h | 7965m | 4.9m/s | -20.2°C | 84.8% | 376.2hPa | 0V | 00:00:00 | 00:00:00 | 00:00:00 | |
| PU1XMG-16 | 2026-09-01 23:56:57 | -22.91190 | -42.97322 | 129° | 128km/h | 7928m | 5.9m/s | -20.0°C | 84.4% | 378.0hPa | 0V | 00:00:00 | 00:00:00 | 00:00:00 | |
| PU1XMG-16 | 2026-09-01 23:56:52 | -22.91091 | -42.97444 | 135° | 113km/h | 7900m | 7.1m/s | -19.8°C | 85.8% | 379.5hPa | 0V | 00:00:00 | 00:00:00 | 00:00:00 | |
| PU1XMG-16 | 2026-09-01 23:56:47 | -22.90999 | -42.97552 | 137° | 108km/h | 7864m | 6.8m/s | -19.5°C | 85.8% | 381.4hPa | 0V | 00:00:00 | 00:00:00 | 00:00:00 | |
| PU1XMG-16 | 2026-09-01 23:56:43 | -22.90891 | -42.97671 | 129° | 126km/h | 7836m | 5.6m/s | -19.3°C | 86.2% | 382.9hPa | 0V | 00:00:00 | 00:00:00 | 00:00:00 | |
| PU1XMG-16 | 2026-09-01 23:56:36 | -22.90777 | -42.97810 | 139° | 119km/h | 7796m | 4.7m/s | -19.1°C | 86.6% | 384.9hPa | 0V | 00:00:00 | 00:00:00 | 00:00:00 | |
| PU1XMG-16 | 2026-09-01 23:56:31 | -22.90668 | -42.97939 | 128° | 126km/h | 7762m | 7.0m/s | -18.8°C | 85.4% | 386.7hPa | 0V | 00:00:00 | 00:00:00 | 00:00:00 | |
| PU1XMG-16 | 2026-09-01 23:56:26 | -22.90575 | -42.98053 | 139° | 110km/h | 7731m | 6.9m/s | -18.6°C | 86.1% | 388.3hPa | 0V | 00:00:00 | 00:00:00 | 00:00:00 | |
| PU1XMG-16 | 2026-09-01 23:56:20 | -22.90452 | -42.98203 | 127° | 117km/h | 7693m | 8.2m/s | -18.3°C | 86.2% | 390.3hPa | 0V | 00:00:00 | 00:00:00 | 00:00:00 | |
| PU1XMG-16 | 2026-09-01 23:56:15 | -22.90350 | -42.98319 | 140° | 128km/h | 7657m | 6.2m/s | -18.1°C | 86.7% | 392.1hPa | 0V | 00:00:00 | 00:00:00 | 00:00:00 | |
| PU1XMG-16 | 2026-09-01 23:56:10 | -22.90242 | -42.98449 | 128° | 119km/h | 7624m | 8.3m/s | -17.9°C | 86.7% | 393.9hPa | 0V | 00:00:00 | 00:00:00 | 00:00:00 | |
| PU1XMG-16 | 2026-09-01 23:56:00 | -22.90046 | -42.98673 | 131° | 126km/h | 7564m | 7.1m/s | -17.5°C | 88.0% | 397.1hPa | 0V | 00:00:00 | 00:00:00 | 00:00:00 | |
| PU1XMG-16 | 2026-09-01 23:55:54 | -22.89916 | -42.98808 | 135° | 106km/h | 7526m | 7.7m/s | -17.2°C | 88.5% | 399.3hPa | 0V | 00:00:00 | 00:00:00 | 00:00:00 | |
| PU1XMG-16 | 2026-09-01 23:55:49 | -22.89820 | -42.98936 | 134° | 133km/h | 7497m | 6.0m/s | -17.0°C | 89.2% | 400.9hPa | 0V | 00:00:00 | 00:00:00 | 00:00:00 | |
| PU1XMG-16 | 2026-09-01 23:55:44 | -22.89709 | -42.99045 | 138° | 102km/h | 7461m | 7.6m/s | -16.8°C | 88.7% | 402.5hPa | 0V | 00:00:00 | 00:00:00 | 00:00:00 | |
| PU1XMG-16 | 2026-09-01 23:55:39 | -22.89620 | -42.99157 | 131° | 120km/h | 7430m | 9.5m/s | -16.6°C | 88.7% | 404.1hPa | 0V | 00:00:00 | 00:00:00 | 00:00:00 | |
| PU1XMG-16 | 2026-09-01 23:55:33 | -22.89478 | -42.99295 | 143° | 117km/h | 7390m | 6.2m/s | -16.4°C | 88.3% | 406.3hPa | 0V | 00:00:00 | 00:00:00 | 00:00:00 | |
| PU1XMG-16 | 2026-09-01 23:55:28 | -22.89374 | -42.99401 | 135° | 119km/h | 7359m | 7.1m/s | -16.2°C | 89.2% | 408.0hPa | 0V | 00:00:00 | 00:00:00 | 00:00:00 | |
| PU1XMG-16 | 2026-09-01 23:55:22 | -22.89249 | -42.99537 | 134° | 106km/h | 7317m | 5.4m/s | -15.9°C | 89.2% | 410.2hPa | 0V | 00:00:00 | 00:00:00 | 00:00:00 | |
| PU1XMG-16 | 2026-09-01 23:55:16 | -22.89120 | -42.99669 | 135° | 128km/h | 7279m | 5.4m/s | -15.7°C | 89.9% | 412.5hPa | 0V | 00:00:00 | 00:00:00 | 00:00:00 | |
| PU1XMG-16 | 2026-09-01 23:55:10 | -22.89003 | -42.99800 | 135° | 104km/h | 7236m | 7.5m/s | -15.4°C | 89.0% | 414.7hPa | 0V | 00:00:00 | 00:00:00 | 00:00:00 | |
| PU1XMG-16 | 2026-09-01 23:55:05 | -22.88902 | -42.99926 | 134° | 135km/h | 7200m | 7.8m/s | -15.1°C | 88.4% | 416.8hPa | 0V | 00:00:00 | 00:00:00 | 00:00:00 | |
| PU1XMG-16 | 2026-09-01 23:55:00 | -22.88788 | -43.00039 | 136° | 108km/h | 7168m | 7.1m/s | -14.9°C | 89.1% | 418.5hPa | 0V | 00:00:00 | 00:00:00 | 00:00:00 | |
| PU1XMG-16 | 2026-09-01 23:54:54 | -22.88667 | -43.00179 | 139° | 126km/h | 7132m | 5.6m/s | -14.7°C | 89.4% | 420.6hPa | 0V | 00:00:00 | 00:00:00 | 00:00:00 | |
| PU1XMG-16 | 2026-09-01 23:54:48 | -22.88541 | -43.00313 | 128° | 115km/h | 7093m | 6.0m/s | -14.5°C | 88.8% | 422.7hPa | 0V | 00:00:00 | 00:00:00 | 00:00:00 | |
| PU1XMG-16 | 2026-09-01 23:54:43 | -22.88436 | -43.00439 | 138° | 128km/h | 7063m | 7.4m/s | -14.3°C | 88.9% | 424.2hPa | 0V | 00:00:00 | 00:00:00 | 00:00:00 | |
| PU1XMG-16 | 2026-09-01 23:54:38 | -22.88330 | -43.00558 | 129° | 122km/h | 7032m | 4.8m/s | -14.2°C | 88.8% | 426.0hPa | 0V | 00:00:00 | 00:00:00 | 00:00:00 | |
| PU1XMG-16 | 2026-09-01 23:54:32 | -22.88195 | -43.00703 | 143° | 111km/h | 6994m | 6.2m/s | -14.0°C | 88.7% | 428.0hPa | 0V | 00:00:00 | 00:00:00 | 00:00:00 | |
| PU1XMG-16 | 2026-09-01 23:54:27 | -22.88097 | -43.00806 | 131° | 117km/h | 6963m | 5.6m/s | -13.8°C | 88.7% | 429.7hPa | 0V | 00:00:00 | 00:00:00 | 00:00:00 | |
| PU1XMG-16 | 2026-09-01 23:54:16 | -22.87875 | -43.01061 | 139° | 111km/h | 6904m | 5.7m/s | -13.4°C | 90.3% | 433.3hPa | 0V | 00:00:00 | 00:00:00 | 00:00:00 | |
| PU1XMG-16 | 2026-09-01 23:54:10 | -22.87762 | -43.01184 | 128° | 115km/h | 6868m | 7.5m/s | -13.2°C | 89.9% | 435.4hPa | 0V | 00:00:00 | 00:00:00 | 00:00:00 | |
| PU1XMG-16 | 2026-09-01 23:54:04 | -22.87631 | -43.01334 | 142° | 126km/h | 6834m | 7.3m/s | -12.9°C | 88.3% | 437.2hPa | 0V | 00:00:00 | 00:00:00 | 00:00:00 | |
| PU1XMG-16 | 2026-09-01 23:53:58 | -22.87507 | -43.01453 | 130° | 102km/h | 6798m | 6.8m/s | -12.8°C | 88.4% | 439.4hPa | 0V | 00:00:00 | 00:00:00 | 00:00:00 | |
| PU1XMG-16 | 2026-09-01 23:53:53 | -22.87411 | -43.01577 | 137° | 124km/h | 6773m | 4.6m/s | -12.6°C | 88.6% | 440.9hPa | 0V | 00:00:00 | 00:00:00 | 00:00:00 | |
| PU1XMG-16 | 2026-09-01 23:53:48 | -22.87307 | -43.01678 | 132° | 99km/h | 6745m | 5.4m/s | -12.4°C | 89.3% | 442.5hPa | 0V | 00:00:00 | 00:00:00 | 00:00:00 | |
| PU1XMG-16 | 2026-09-01 23:53:43 | -22.87223 | -43.01796 | 131° | 122km/h | 6718m | 5.6m/s | -12.2°C | 89.1% | 444.2hPa | 0V | 00:00:00 | 00:00:00 | 00:00:00 | |
| PU1XMG-16 | 2026-09-01 23:53:37 | -22.87097 | -43.01925 | 138° | 100km/h | 6682m | 6.0m/s | -12.0°C | 89.2% | 446.1hPa | 0V | 00:00:00 | 00:00:00 | 00:00:00 | |
| PU1XMG-16 | 2026-09-01 23:53:31 | -22.86990 | -43.02053 | 135° | 108km/h | 6651m | 5.3m/s | -11.9°C | 90.2% | 447.9hPa | 0V | 00:00:00 | 00:00:00 | 00:00:00 | |
| PU1XMG-16 | 2026-09-01 23:53:26 | -22.86905 | -43.02155 | 128° | 102km/h | 6621m | 6.9m/s | -11.7°C | 89.9% | 449.7hPa | 0V | 00:00:00 | 00:00:00 | 00:00:00 | |
| PU1XMG-16 | 2026-09-01 23:53:21 | -22.86807 | -43.02269 | 141° | 115km/h | 6595m | 7.2m/s | -11.5°C | 89.6% | 451.2hPa | 0V | 00:00:00 | 00:00:00 | 00:00:00 | |
| PU1XMG-16 | 2026-09-01 23:53:15 | -22.86701 | -43.02380 | 127° | 95km/h | 6561m | 5.0m/s | -11.3°C | 90.0% | 453.3hPa | 0V | 00:00:00 | 00:00:00 | 00:00:00 | |
| PU1XMG-16 | 2026-09-01 23:53:10 | -22.86613 | -43.02491 | 137° | 115km/h | 6533m | 7.0m/s | -11.2°C | 89.9% | 455.0hPa | 0V | 00:00:00 | 00:00:00 | 00:00:00 | |
| PU1XMG-16 | 2026-09-01 23:53:05 | -22.86510 | -43.02601 | 132° | 102km/h | 6505m | 4.4m/s | -11.1°C | 90.5% | 456.5hPa | 0V | 00:00:00 | 00:00:00 | 00:00:00 | |
| PU1XMG-16 | 2026-09-01 23:53:00 | -22.86430 | -43.02691 | 142° | 93km/h | 6475m | 4.5m/s | -10.9°C | 89.9% | 458.1hPa | 0V | 00:00:00 | 00:00:00 | 00:00:00 | |
| PU1XMG-16 | 2026-09-01 23:52:54 | -22.86310 | -43.02811 | 131° | 104km/h | 6443m | 4.4m/s | -10.7°C | 90.2% | 460.0hPa | 0V | 00:00:00 | 00:00:00 | 00:00:00 | |
| PU1XMG-16 | 2026-09-01 23:52:49 | -22.86225 | -43.02908 | 141° | 102km/h | 6414m | 3.8m/s | -10.5°C | 90.5% | 461.8hPa | 0V | 00:00:00 | 00:00:00 | 00:00:00 | |
| PU1XMG-16 | 2026-09-01 23:52:44 | -22.86132 | -43.03014 | 127° | 108km/h | 6381m | 6.4m/s | -10.3°C | 89.6% | 463.6hPa | 0V | 00:00:00 | 00:00:00 | 00:00:00 | |
| PU1XMG-16 | 2026-09-01 23:52:39 | -22.86054 | -43.03128 | 131° | 104km/h | 6359m | 6.4m/s | -10.2°C | 90.3% | 465.1hPa | 0V | 00:00:00 | 00:00:00 | 00:00:00 | |
| PU1XMG-16 | 2026-09-01 23:52:33 | -22.85950 | -43.03236 | 132° | 93km/h | 6327m | 4.0m/s | -10.0°C | 91.4% | 467.1hPa | 0V | 00:00:00 | 00:00:00 | 00:00:00 | |
| PU1XMG-16 | 2026-09-01 23:52:28 | -22.85866 | -43.03342 | 136° | 104km/h | 6303m | 5.1m/s | -9.9°C | 92.7% | 468.6hPa | 0V | 00:00:00 | 00:00:00 | 00:00:00 | |
| PU1XMG-16 | 2026-09-01 23:52:23 | -22.85773 | -43.03457 | 125° | 99km/h | 6272m | 5.8m/s | -9.8°C | 91.9% | 470.6hPa | 0V | 00:00:00 | 00:00:00 | 00:00:00 | |
| PU1XMG-16 | 2026-09-01 23:52:16 | -22.85663 | -43.03601 | 137° | 115km/h | 6240m | 4.8m/s | -9.6°C | 92.8% | 472.4hPa | 0V | 00:00:00 | 00:00:00 | 00:00:00 | |
| PU1XMG-16 | 2026-09-01 23:52:11 | -22.85563 | -43.03696 | 139° | 97km/h | 6216m | 5.5m/s | -9.5°C | 92.8% | 474.0hPa | 0V | 00:00:00 | 00:00:00 | 00:00:00 | |
| PU1XMG-16 | 2026-09-01 23:52:07 | -22.85480 | -43.03786 | 134° | 91km/h | 6194m | 5.7m/s | -9.4°C | 93.0% | 475.2hPa | 0V | 00:00:00 | 00:00:00 | 00:00:00 | |
| PU1XMG-16 | 2026-09-01 23:52:01 | -22.85392 | -43.03898 | 128° | 115km/h | 6164m | 4.3m/s | -9.2°C | 93.9% | 477.1hPa | 0V | 00:00:00 | 00:00:00 | 00:00:00 | |
| PU1XMG-16 | 2026-09-01 23:51:55 | -22.85286 | -43.04030 | 138° | 115km/h | 6128m | 6.6m/s | -9.0°C | 93.8% | 479.2hPa | 0V | 00:00:00 | 00:00:00 | 00:00:00 | |
| PU1XMG-16 | 2026-09-01 23:51:50 | -22.85185 | -43.04155 | 126° | 115km/h | 6097m | 5.6m/s | -8.8°C | 93.7% | 481.1hPa | 0V | 00:00:00 | 00:00:00 | 00:00:00 | |
| PU1XMG-16 | 2026-09-01 23:51:45 | -22.85097 | -43.04273 | 134° | 117km/h | 6074m | 7.8m/s | -8.7°C | 94.6% | 482.6hPa | 0V | 00:00:00 | 00:00:00 | 00:00:00 | |
| PU1XMG-16 | 2026-09-01 23:51:39 | -22.84968 | -43.04406 | 138° | 119km/h | 6039m | 6.3m/s | -8.5°C | 95.4% | 484.8hPa | 0V | 00:00:00 | 00:00:00 | 00:00:00 | |
| PU1XMG-16 | 2026-09-01 23:51:33 | -22.84847 | -43.04563 | 124° | 115km/h | 6002m | 7.7m/s | -8.3°C | 95.3% | 487.1hPa | 0V | 00:00:00 | 00:00:00 | 00:00:00 | |
| PU1XMG-16 | 2026-09-01 23:51:27 | -22.84743 | -43.04695 | 138° | 113km/h | 5966m | 6.0m/s | -8.0°C | 96.1% | 489.2hPa | 0V | 00:00:00 | 00:00:00 | 00:00:00 | |
| PU1XMG-16 | 2026-09-01 23:51:22 | -22.84606 | -43.04843 | 136° | 128km/h | 5934m | 6.1m/s | -7.9°C | 96.4% | 491.2hPa | 0V | 00:00:00 | 00:00:00 | 00:00:00 | |
| PU1XMG-16 | 2026-09-01 23:51:15 | -22.84492 | -43.04978 | 124° | 111km/h | 5900m | 4.7m/s | -7.7°C | 96.7% | 493.3hPa | 0V | 00:00:00 | 00:00:00 | 00:00:00 | |
| PU1XMG-16 | 2026-09-01 23:51:10 | -22.84401 | -43.05119 | 131° | 131km/h | 5876m | 4.9m/s | -7.6°C | 97.0% | 495.1hPa | 0V | 00:00:00 | 00:00:00 | 00:00:00 | |
| PU1XMG-16 | 2026-09-01 23:51:05 | -22.84300 | -43.05241 | 132° | 108km/h | 5852m | 4.6m/s | -7.5°C | 97.0% | 496.5hPa | 0V | 00:00:00 | 00:00:00 | 00:00:00 | |
| PU1XMG-16 | 2026-09-01 23:50:59 | -22.84191 | -43.05386 | 130° | 126km/h | 5824m | 5.3m/s | -7.3°C | 97.1% | 498.4hPa | 0V | 00:00:00 | 00:00:00 | 00:00:00 | |
| PU1XMG-16 | 2026-09-01 23:50:54 | -22.84091 | -43.05514 | 131° | 124km/h | 5793m | 7.9m/s | -7.2°C | 96.8% | 500.3hPa | 0V | 00:00:00 | 00:00:00 | 00:00:00 | |
| PU1XMG-16 | 2026-09-01 23:50:48 | -22.83980 | -43.05680 | 122° | 124km/h | 5756m | 5.3m/s | -7.1°C | 97.8% | 502.7hPa | 0V | 00:00:00 | 00:00:00 | 00:00:00 | |
| PU1XMG-16 | 2026-09-01 23:50:43 | -22.83890 | -43.05834 | 126° | 137km/h | 5726m | 5.3m/s | -7.0°C | 97.5% | 504.7hPa | 0V | 00:00:00 | 00:00:00 | 00:00:00 | |
| PU1XMG-16 | 2026-09-01 23:50:37 | -22.83776 | -43.06009 | 123° | 122km/h | 5692m | 6.1m/s | -6.9°C | 98.2% | 506.8hPa | 0V | 00:00:00 | 00:00:00 | 00:00:00 | |
| PU1XMG-16 | 2026-09-01 23:50:32 | -22.83696 | -43.06148 | 118° | 115km/h | 5659m | 7.3m/s | -6.7°C | 98.1% | 508.8hPa | 0V | 00:00:00 | 00:00:00 | 00:00:00 | |
| PU1XMG-16 | 2026-09-01 23:50:28 | -22.83627 | -43.06304 | 119° | 137km/h | 5630m | 4.8m/s | -6.6°C | 98.2% | 510.7hPa | 0V | 00:00:00 | 00:00:00 | 00:00:00 | |
| PU1XMG-16 | 2026-09-01 23:50:21 | -22.83513 | -43.06483 | 129° | 120km/h | 5601m | 6.6m/s | -6.4°C | 98.4% | 512.7hPa | 0V | 00:00:00 | 00:00:00 | 00:00:00 | |
| PU1XMG-16 | 2026-09-01 23:50:16 | -22.83436 | -43.06610 | 118° | 111km/h | 5575m | 4.7m/s | -6.3°C | 98.5% | 514.4hPa | 0V | 00:00:00 | 00:00:00 | 00:00:00 | |
| PU1XMG-16 | 2026-09-01 23:50:10 | -22.83352 | -43.06795 | 120° | 137km/h | 5550m | 5.0m/s | -6.1°C | 98.5% | 516.2hPa | 0V | 00:00:00 | 00:00:00 | 00:00:00 | |
| PU1XMG-16 | 2026-09-01 23:50:05 | -22.83257 | -43.06949 | 130° | 126km/h | 5526m | 4.9m/s | -6.1°C | 98.1% | 517.7hPa | 0V | 00:00:00 | 00:00:00 | 00:00:00 | |
| PU1XMG-16 | 2026-09-01 23:49:59 | -22.83157 | -43.07104 | 118° | 119km/h | 5495m | 4.8m/s | -6.0°C | 98.9% | 519.8hPa | 0V | 00:00:00 | 00:00:00 | 00:00:00 | |
| PU1XMG-16 | 2026-09-01 23:49:53 | -22.83059 | -43.07289 | 125° | 130km/h | 5466m | 5.6m/s | -5.9°C | 98.1% | 521.7hPa | 0V | 00:00:00 | 00:00:00 | 00:00:00 | |
| PU1XMG-16 | 2026-09-01 23:49:49 | -22.82975 | -43.07434 | 120° | 119km/h | 5438m | 6.2m/s | -5.9°C | 98.9% | 523.7hPa | 0V | 00:00:00 | 00:00:00 | 00:00:00 | |
| PU1XMG-16 | 2026-09-01 23:49:44 | -22.82897 | -43.07574 | 121° | 124km/h | 5409m | 7.6m/s | -5.8°C | 98.3% | 525.5hPa | 0V | 00:00:00 | 00:00:00 | 00:00:00 | |
| PU1XMG-16 | 2026-09-01 23:49:38 | -22.82823 | -43.07749 | 118° | 110km/h | 5373m | 6.2m/s | -5.5°C | 99.7% | 528.0hPa | 0V | 00:00:00 | 00:00:00 | 00:00:00 | |
| PU1XMG-16 | 2026-09-01 23:49:31 | -22.82730 | -43.07924 | 122° | 130km/h | 5342m | 5.6m/s | -5.4°C | 98.9% | 530.1hPa | 0V | 00:00:00 | 00:00:00 | 00:00:00 | |
| PU1XMG-16 | 2026-09-01 23:49:27 | -22.82648 | -43.08061 | 123° | 106km/h | 5312m | 6.4m/s | -5.2°C | 99.5% | 531.9hPa | 0V | 00:00:00 | 00:00:00 | 00:00:00 | |
| PU1XMG-16 | 2026-09-01 23:49:21 | -22.82590 | -43.08190 | 112° | 113km/h | 5279m | 7.0m/s | -5.2°C | 99.0% | 534.3hPa | 0V | 00:00:00 | 00:00:00 | 00:00:00 | |
| PU1XMG-16 | 2026-09-01 23:49:15 | -22.82508 | -43.08379 | 121° | 130km/h | 5246m | 4.5m/s | -5.0°C | 99.6% | 536.6hPa | 0V | 00:00:00 | 00:00:00 | 00:00:00 | |
| PU1XMG-16 | 2026-09-01 23:49:11 | -22.82423 | -43.08525 | 125° | 122km/h | 5221m | 4.6m/s | -4.9°C | 99.4% | 538.1hPa | 0V | 00:00:00 | 00:00:00 | 00:00:00 | |
| PU1XMG-16 | 2026-09-01 23:49:05 | -22.82344 | -43.08663 | 117° | 113km/h | 5197m | 7.0m/s | -4.8°C | 99.0% | 539.7hPa | 0V | 00:00:00 | 00:00:00 | 00:00:00 | |
| PU1XMG-16 | 2026-09-01 23:49:00 | -22.82288 | -43.08812 | 113° | 122km/h | 5164m | 5.0m/s | -4.7°C | 99.7% | 541.9hPa | 0V | 00:00:00 | 00:00:00 | 00:00:00 | |
| PU1XMG-16 | 2026-09-01 23:48:55 | -22.82224 | -43.08965 | 114° | 126km/h | 5133m | 4.3m/s | -4.6°C | 99.5% | 544.1hPa | 0V | 00:00:00 | 00:00:00 | 00:00:00 | |
| PU1XMG-16 | 2026-09-01 23:48:49 | -22.82156 | -43.09137 | 119° | 108km/h | 5096m | 6.1m/s | -4.6°C | 98.8% | 546.6hPa | 0V | 00:00:00 | 00:00:00 | 00:00:00 | |
| PU1XMG-16 | 2026-09-01 23:48:43 | -22.82071 | -43.09312 | 115° | 126km/h | 5067m | 5.1m/s | -4.6°C | 98.8% | 548.7hPa | 0V | 00:00:00 | 00:00:00 | 00:00:00 | |
| PU1XMG-16 | 2026-09-01 23:48:38 | -22.82009 | -43.09464 | 114° | 119km/h | 5037m | 5.3m/s | -4.5°C | 98.9% | 550.9hPa | 0V | 00:00:00 | 00:00:00 | 00:00:00 | |
| PU1XMG-16 | 2026-09-01 23:48:32 | -22.81958 | -43.09642 | 107° | 99km/h | 4999m | 7.6m/s | -4.4°C | 98.9% | 553.6hPa | 0V | 00:00:00 | 00:00:00 | 00:00:00 | |
| PU1XMG-16 | 2026-09-01 23:48:27 | -22.81907 | -43.09772 | 117° | 108km/h | 4971m | 6.5m/s | -4.3°C | 99.1% | 555.5hPa | 0V | 00:00:00 | 00:00:00 | 00:00:00 | |
| PU1XMG-16 | 2026-09-01 23:48:21 | -22.81840 | -43.09924 | 112° | 97km/h | 4935m | 6.0m/s | -4.1°C | 98.1% | 558.0hPa | 0V | 00:00:00 | 00:00:00 | 00:00:00 | |
| PU1XMG-16 | 2026-09-01 23:48:16 | -22.81806 | -43.10064 | 102° | 113km/h | 4911m | 4.7m/s | -4.0°C | 98.8% | 559.8hPa | 0V | 00:00:00 | 00:00:00 | 00:00:00 | |
| PU1XMG-16 | 2026-09-01 23:48:10 | -22.81772 | -43.10235 | 108° | 100km/h | 4878m | 5.3m/s | -3.9°C | 98.3% | 561.9hPa | 0V | 00:00:00 | 00:00:00 | 00:00:00 | |
| PU1XMG-16 | 2026-09-01 23:48:05 | -22.81727 | -43.10376 | 108° | 113km/h | 4854m | 4.5m/s | -3.7°C | 99.3% | 563.7hPa | 0V | 00:00:00 | 00:00:00 | 00:00:00 | |
| PU1XMG-16 | 2026-09-01 23:47:59 | -22.81668 | -43.10540 | 116° | 106km/h | 4818m | 4.4m/s | -3.6°C | 98.9% | 566.3hPa | 0V | 00:00:00 | 00:00:00 | 00:00:00 | |
| PU1XMG-16 | 2026-09-01 23:47:55 | -22.81612 | -43.10703 | 108° | 108km/h | 4784m | 5.9m/s | -3.5°C | 100.0% | 568.6hPa | 0V | 00:00:00 | 00:00:00 | 00:00:00 | |
| PU1XMG-16 | 2026-09-01 23:47:47 | -22.81570 | -43.10875 | 106° | 110km/h | 4751m | 6.1m/s | -3.2°C | 99.5% | 571.1hPa | 0V | 00:00:00 | 00:00:00 | 00:00:00 | |
| PU1XMG-16 | 2026-09-01 23:47:41 | -22.81516 | -43.11034 | 118° | 104km/h | 4716m | 7.5m/s | -3.1°C | 99.6% | 573.7hPa | 0V | 00:00:00 | 00:00:00 | 00:00:00 | |
| PU1XMG-16 | 2026-09-01 23:47:36 | -22.81453 | -43.11166 | 118° | 104km/h | 4690m | 5.7m/s | -3.0°C | 99.2% | 575.5hPa | 0V | 00:00:00 | 00:00:00 | 00:00:00 | |
| PU1XMG-16 | 2026-09-01 23:47:30 | -22.81397 | -43.11312 | 106° | 95km/h | 4660m | 4.9m/s | -2.9°C | 99.4% | 577.7hPa | 0V | 00:00:00 | 00:00:00 | 00:00:00 | |
| PU1XMG-16 | 2026-09-01 23:47:25 | -22.81362 | -43.11441 | 111° | 100km/h | 4638m | 5.3m/s | -2.9°C | 0% | 579.3hPa | 0V | 00:00:00 | 00:00:00 | 00:00:00 | |
| PU1XMG-16 | 2026-09-01 23:47:19 | -22.81316 | -43.11609 | 101° | 110km/h | 4602m | 5.4m/s | -3.1°C | 0% | 581.9hPa | 0V | 00:00:00 | 00:00:00 | 00:00:00 | |
| PU1XMG-16 | 2026-09-01 23:47:12 | -22.81251 | -43.11924 | 103° | 97km/h | 4537m | 6.2m/s | -2.7°C | 98.6% | 586.7hPa | 0V | 00:00:00 | 00:00:00 | 00:00:00 | |
| PU1XMG-16 | 2026-09-01 23:47:03 | -22.81231 | -43.12060 | 97° | 102km/h | 4513m | 7.5m/s | -2.5°C | 98.1% | 588.4hPa | 0V | 00:00:00 | 00:00:00 | 00:00:00 | |
| PU1XMG-16 | 2026-09-01 23:46:57 | -22.81206 | -43.12230 | 104° | 108km/h | 4474m | 7.6m/s | -2.1°C | 94.8% | 591.2hPa | 0V | 00:00:00 | 00:00:00 | 00:00:00 | |
| PU1XMG-16 | 2026-09-01 23:46:52 | -22.81184 | -43.12377 | 98° | 106km/h | 4444m | 4.6m/s | -1.8°C | 94.3% | 593.5hPa | 0V | 00:00:00 | 00:00:00 | 00:00:00 | |
| PU1XMG-16 | 2026-09-01 23:46:48 | -22.81162 | -43.12513 | 101° | 100km/h | 4417m | 4.3m/s | -1.6°C | 93.2% | 595.5hPa | 0V | 00:00:00 | 00:00:00 | 00:00:00 | |
| PU1XMG-16 | 2026-09-01 23:46:41 | -22.81146 | -43.12683 | 97° | 102km/h | 4386m | 6.0m/s | -1.3°C | 91.7% | 597.9hPa | 0V | 00:00:00 | 00:00:00 | 00:00:00 | |
| PU1XMG-16 | 2026-09-01 23:46:35 | -22.81122 | -43.12849 | 104° | 115km/h | 4355m | 5.2m/s | -1.3°C | 91.6% | 600.3hPa | 0V | 00:00:00 | 00:00:00 | 00:00:00 | |
| PU1XMG-16 | 2026-09-01 23:46:29 | -22.81086 | -43.13034 | 100° | 104km/h | 4326m | 5.3m/s | -0.9°C | 89.9% | 602.7hPa | 0V | 00:00:00 | 00:00:00 | 00:00:00 | |
| PU1XMG-16 | 2026-09-01 23:46:24 | -22.81079 | -43.13173 | 91° | 110km/h | 4302m | 4.9m/s | -0.9°C | 89.0% | 604.5hPa | 0V | 00:00:00 | 00:00:00 | 00:00:00 | |
| PU1XMG-16 | 2026-09-01 23:46:18 | -22.81067 | -43.13365 | 98° | 120km/h | 4271m | 5.8m/s | -0.6°C | 87.6% | 606.7hPa | 0V | 00:00:00 | 00:00:00 | 00:00:00 | |
| PU1XMG-16 | 2026-09-01 23:46:13 | -22.81056 | -43.13526 | 93° | 111km/h | 4242m | 6.3m/s | -0.2°C | 86.0% | 608.9hPa | 0V | 00:00:00 | 00:00:00 | 00:00:00 | |
| PU1XMG-16 | 2026-09-01 23:46:07 | -22.81045 | -43.13707 | 96° | 122km/h | 4207m | 5.3m/s | 0.1°C | 83.7% | 611.5hPa | 0V | 00:00:00 | 00:00:00 | 00:00:00 | |
| PU1XMG-16 | 2026-09-01 23:46:02 | -22.81030 | -43.13867 | 98° | 108km/h | 4179m | 5.1m/s | 0.3°C | 82.8% | 613.8hPa | 0V | 00:00:00 | 00:00:00 | 00:00:00 | |
| PU1XMG-16 | 2026-09-01 23:45:56 | -22.81029 | -43.14037 | 90° | 110km/h | 4146m | 8.3m/s | 0.2°C | 85.2% | 616.3hPa | 0V | 00:00:00 | 00:00:00 | 00:00:00 | |
| PU1XMG-16 | 2026-09-01 23:45:51 | -22.81020 | -43.14185 | 95° | 106km/h | 4114m | 7.1m/s | 0.4°C | 84.4% | 618.8hPa | 0V | 00:00:00 | 00:00:00 | 00:00:00 | |
| PU1XMG-16 | 2026-09-01 23:45:45 | -22.81014 | -43.14355 | 98° | 106km/h | 4076m | 5.1m/s | 0.6°C | 84.7% | 621.6hPa | 0V | 00:00:00 | 00:00:00 | 00:00:00 | |
| PU1XMG-16 | 2026-09-01 23:45:40 | -22.81002 | -43.14499 | 97° | 100km/h | 4043m | 6.6m/s | 0.6°C | 85.9% | 623.9hPa | 0V | 00:00:00 | 00:00:00 | 00:00:00 | |
| PU1XMG-16 | 2026-09-01 23:45:34 | -22.80987 | -43.14668 | 96° | 100km/h | 4009m | 6.4m/s | 0.7°C | 88.1% | 626.7hPa | 0V | 00:00:00 | 00:00:00 | 00:00:00 | |
| PU1XMG-16 | 2026-09-01 23:45:29 | -22.80971 | -43.14814 | 94° | 110km/h | 3982m | 5.5m/s | 1.0°C | 86.3% | 629.0hPa | 0V | 00:00:00 | 00:00:00 | 00:00:00 | |
| PU1XMG-16 | 2026-09-01 23:45:23 | -22.80956 | -43.14967 | 102° | 93km/h | 3948m | 5.0m/s | 0.9°C | 87.6% | 631.4hPa | 0V | 00:00:00 | 00:00:00 | 00:00:00 | |
| PU1XMG-16 | 2026-09-01 23:45:17 | -22.80939 | -43.15119 | 102° | 86km/h | 3915m | 3.1m/s | 1.2°C | 87.1% | 634.0hPa | 0V | 00:00:00 | 00:00:00 | 00:00:00 | |
| PU1XMG-16 | 2026-09-01 23:45:12 | -22.80912 | -43.15260 | 98° | 84km/h | 3889m | 3.2m/s | 1.3°C | 86.5% | 635.9hPa | 0V | 00:00:00 | 00:00:00 | 00:00:00 | |
| PU1XMG-16 | 2026-09-01 23:45:06 | -22.80897 | -43.15390 | 97° | 108km/h | 3866m | 5.4m/s | 1.5°C | 84.8% | 638.0hPa | 0V | 00:00:00 | 00:00:00 | 00:00:00 | |
| PU1XMG-16 | 2026-09-01 23:45:01 | -22.80876 | -43.15563 | 95° | 102km/h | 3827m | 5.0m/s | 1.8°C | 83.0% | 640.8hPa | 0V | 00:00:00 | 00:00:00 | 00:00:00 | |
| PU1XMG-16 | 2026-09-01 23:44:54 | -22.80868 | -43.15732 | 92° | 102km/h | 3792m | 7.4m/s | 2.0°C | 80.4% | 643.6hPa | 0V | 00:00:00 | 00:00:00 | 00:00:00 | |
| PU1XMG-16 | 2026-09-01 23:44:49 | -22.80855 | -43.15896 | 95° | 97km/h | 3757m | 5.5m/s | 2.4°C | 78.9% | 646.5hPa | 0V | 00:00:00 | 00:00:00 | 00:00:00 | |
| PU1XMG-16 | 2026-09-01 23:44:43 | -22.80845 | -43.16050 | 93° | 99km/h | 3723m | 9.1m/s | 2.8°C | 77.2% | 649.4hPa | 0V | 00:00:00 | 00:00:00 | 00:00:00 | |
| PU1XMG-16 | 2026-09-01 23:44:38 | -22.80840 | -43.16189 | 94° | 106km/h | 3691m | 7.7m/s | 3.0°C | 76.1% | 651.9hPa | 0V | 00:00:00 | 00:00:00 | 00:00:00 | |
| PU1XMG-16 | 2026-09-01 23:44:32 | -22.80847 | -43.16339 | 85° | 89km/h | 3657m | 3.9m/s | 2.6°C | 77.8% | 654.6hPa | 0V | 00:00:00 | 00:00:00 | 00:00:00 | |
| PU1XMG-16 | 2026-09-01 23:44:27 | -22.80860 | -43.16474 | 89° | 100km/h | 3633m | 4.5m/s | 2.6°C | 78.7% | 656.5hPa | 0V | 00:00:00 | 00:00:00 | 00:00:00 | |
| PU1XMG-16 | 2026-09-01 23:44:20 | -22.80871 | -43.16631 | 86° | 88km/h | 3597m | 4.9m/s | 2.7°C | 79.4% | 659.3hPa | 0V | 00:00:00 | 00:00:00 | 00:00:00 | |
| PU1XMG-16 | 2026-09-01 23:44:16 | -22.80879 | -43.16760 | 85° | 97km/h | 3569m | 6.6m/s | 2.9°C | 78.9% | 661.8hPa | 0V | 00:00:00 | 00:00:00 | 00:00:00 | |
| PU1XMG-16 | 2026-09-01 23:44:10 | -22.80899 | -43.16906 | 78° | 88km/h | 3533m | 6.1m/s | 3.2°C | 77.6% | 664.6hPa | 0V | 00:00:00 | 00:00:00 | 00:00:00 | |
| PU1XMG-16 | 2026-09-01 23:44:03 | -22.80916 | -43.17053 | 84° | 95km/h | 3498m | 8.4m/s | 3.4°C | 77.1% | 667.4hPa | 0V | 00:00:00 | 00:00:00 | 00:00:00 | |
| PU1XMG-16 | 2026-09-01 23:43:58 | -22.80927 | -43.17183 | 89° | 102km/h | 3473m | 5.8m/s | 3.4°C | 77.6% | 669.6hPa | 0V | 00:00:00 | 00:00:00 | 00:00:00 | |
| PU1XMG-16 | 2026-09-01 23:43:53 | -22.80938 | -43.17319 | 87° | 93km/h | 3448m | 4.4m/s | 3.3°C | 78.6% | 671.6hPa | 0V | 00:00:00 | 00:00:00 | 00:00:00 | |
| PU1XMG-16 | 2026-09-01 23:43:47 | -22.80947 | -43.17466 | 91° | 78km/h | 3415m | 3.9m/s | 3.5°C | 78.2% | 674.2hPa | 0V | 00:00:00 | 00:00:00 | 00:00:00 | |
| PU1XMG-16 | 2026-09-01 23:43:43 | -22.80940 | -43.17576 | 93° | 86km/h | 3392m | 6.4m/s | 3.7°C | 79.2% | 676.3hPa | 0V | 00:00:00 | 00:00:00 | 00:00:00 | |
| PU1XMG-16 | 2026-09-01 23:43:36 | -22.80944 | -43.17717 | 93° | 84km/h | 3359m | 5.6m/s | 3.9°C | 79.7% | 679.0hPa | 0V | 00:00:00 | 00:00:00 | 00:00:00 | |
| PU1XMG-16 | 2026-09-01 23:43:32 | -22.80941 | -43.17839 | 92° | 88km/h | 3333m | 7.0m/s | 4.1°C | 79.6% | 681.0hPa | 0V | 00:00:00 | 00:00:00 | 00:00:00 | |
| PU1XMG-16 | 2026-09-01 23:43:27 | -22.80939 | -43.17956 | 89° | 84km/h | 3307m | 7.0m/s | 4.3°C | 78.2% | 683.2hPa | 0V | 00:00:00 | 00:00:00 | 00:00:00 | |
| PU1XMG-16 | 2026-09-01 23:43:22 | -22.80936 | -43.18072 | 93° | 84km/h | 3281m | 8.3m/s | 4.6°C | 77.3% | 685.5hPa | 0V | 00:00:00 | 00:00:00 | 00:00:00 | |
| PU1XMG-16 | 2026-09-01 23:43:15 | -22.80931 | -43.18207 | 89° | 82km/h | 3242m | 7.5m/s | 4.9°C | 76.6% | 688.7hPa | 0V | 00:00:00 | 00:00:00 | 00:00:00 | |
| PU1XMG-16 | 2026-09-01 23:43:10 | -22.80930 | -43.18345 | 92° | 86km/h | 3203m | 8.4m/s | 5.2°C | 75.7% | 692.0hPa | 0V | 00:00:00 | 00:00:00 | 00:00:00 | |
| PU1XMG-16 | 2026-09-01 23:43:04 | -22.80927 | -43.18465 | 92° | 88km/h | 3170m | 7.7m/s | 5.6°C | 73.8% | 694.7hPa | 0V | 00:00:00 | 00:00:00 | 00:00:00 | |
| PU1XMG-16 | 2026-09-01 23:43:00 | -22.80923 | -43.18581 | 89° | 89km/h | 3138m | 6.2m/s | 5.9°C | 72.6% | 697.4hPa | 0V | 00:00:00 | 00:00:00 | 00:00:00 | |
| PU1XMG-16 | 2026-09-01 23:42:53 | -22.80918 | -43.18729 | 95° | 89km/h | 3103m | 7.2m/s | 6.1°C | 73.0% | 700.5hPa | 0V | 00:00:00 | 00:00:00 | 00:00:00 | |
| PU1XMG-16 | 2026-09-01 23:42:48 | -22.80905 | -43.18869 | 92° | 80km/h | 3066m | 5.4m/s | 6.4°C | 72.8% | 703.7hPa | 0V | 00:00:00 | 00:00:00 | 00:00:00 | |
| PU1XMG-16 | 2026-09-01 23:42:42 | -22.80902 | -43.19008 | 93° | 86km/h | 3032m | 7.4m/s | 6.7°C | 71.7% | 706.8hPa | 0V | 00:00:00 | 00:00:00 | 00:00:00 | |
| PU1XMG-16 | 2026-09-01 23:42:37 | -22.80889 | -43.19125 | 99° | 86km/h | 3003m | 6.7m/s | 7.0°C | 69.9% | 709.3hPa | 0V | 00:00:00 | 00:00:00 | 00:00:00 | |
| PU1XMG-16 | 2026-09-01 23:42:31 | -22.80881 | -43.19258 | 96° | 82km/h | 2966m | 4.8m/s | 7.3°C | 69.6% | 712.6hPa | 0V | 00:00:00 | 00:00:00 | 00:00:00 | |
| PU1XMG-16 | 2026-09-01 23:42:26 | -22.80876 | -43.19372 | 95° | 78km/h | 2932m | 7.2m/s | 7.6°C | 68.4% | 715.2hPa | 0V | 00:00:00 | 00:00:00 | 00:00:00 | |
| PU1XMG-16 | 2026-09-01 23:42:20 | -22.80867 | -43.19481 | 97° | 78km/h | 2900m | 7.4m/s | 7.8°C | 68.0% | 718.1hPa | 0V | 00:00:00 | 00:00:00 | 00:00:00 | |
| PU1XMG-16 | 2026-09-01 23:42:16 | -22.80860 | -43.19595 | 90° | 84km/h | 2873m | 6.4m/s | 8.0°C | 68.4% | 720.5hPa | 0V | 00:00:00 | 00:00:00 | 00:00:00 | |
| PU1XMG-16 | 2026-09-01 23:42:10 | -22.80853 | -43.19730 | 96° | 80km/h | 2840m | 7.9m/s | 8.1°C | 68.9% | 723.3hPa | 0V | 00:00:00 | 00:00:00 | 00:00:00 | |
| PU1XMG-16 | 2026-09-01 23:42:05 | -22.80844 | -43.19841 | 94° | 80km/h | 2811m | 7.5m/s | 7.9°C | 75.8% | 725.7hPa | 0V | 00:00:00 | 00:00:00 | 00:00:00 | |
| PU1XMG-16 | 2026-09-01 23:41:59 | -22.80831 | -43.19952 | 97° | 78km/h | 2783m | 5.2m/s | 7.9°C | 78.0% | 728.1hPa | 0V | 00:00:00 | 00:00:00 | 00:00:00 | |
| PU1XMG-16 | 2026-09-01 23:41:55 | -22.80814 | -43.20052 | 102° | 77km/h | 2755m | 4.9m/s | 8.0°C | 79.1% | 730.6hPa | 0V | 00:00:00 | 00:00:00 | 00:00:00 | |
| PU1XMG-16 | 2026-09-01 23:41:48 | -22.80796 | -43.20166 | 97° | 69km/h | 2719m | 6.3m/s | 8.1°C | 79.1% | 733.5hPa | 0V | 00:00:00 | 00:00:00 | 00:00:00 | |
| PU1XMG-16 | 2026-09-01 23:41:42 | -22.80781 | -43.20279 | 101° | 69km/h | 2681m | 7.4m/s | 8.1°C | 81.4% | 736.9hPa | 0V | 00:00:00 | 00:00:00 | 00:00:00 | |
| PU1XMG-16 | 2026-09-01 23:41:38 | -22.80765 | -43.20376 | 95° | 71km/h | 2655m | 5.5m/s | 8.1°C | 83.2% | 739.4hPa | 0V | 00:00:00 | 00:00:00 | 00:00:00 | |
| PU1XMG-16 | 2026-09-01 23:41:32 | -22.80751 | -43.20488 | 100° | 75km/h | 2623m | 7.7m/s | 8.3°C | 83.8% | 742.3hPa | 0V | 00:00:00 | 00:00:00 | 00:00:00 | |
| PU1XMG-16 | 2026-09-01 23:41:26 | -22.80734 | -43.20590 | 97° | 71km/h | 2589m | 4.4m/s | 8.3°C | 82.5% | 745.3hPa | 0V | 00:00:00 | 00:00:00 | 00:00:00 | |
| PU1XMG-16 | 2026-09-01 23:41:21 | -22.80716 | -43.20708 | 98° | 73km/h | 2556m | 7.0m/s | 8.5°C | 79.1% | 748.3hPa | 0V | 00:00:00 | 00:00:00 | 00:00:00 | |
| PU1XMG-16 | 2026-09-01 23:41:16 | -22.80705 | -43.20799 | 100° | 66km/h | 2525m | 8.1m/s | 8.8°C | 77.3% | 751.0hPa | 0V | 00:00:00 | 00:00:00 | 00:00:00 | |
| PU1XMG-16 | 2026-09-01 23:41:09 | -22.80694 | -43.20905 | 97° | 64km/h | 2484m | 5.9m/s | 9.1°C | 75.5% | 754.6hPa | 0V | 00:00:00 | 00:00:00 | 00:00:00 | |
| PU1XMG-16 | 2026-09-01 23:41:04 | -22.80689 | -43.21013 | 96° | 68km/h | 2450m | 8.3m/s | 9.4°C | 74.2% | 757.8hPa | 0V | 00:00:00 | 00:00:00 | 00:00:00 | |
| PU1XMG-16 | 2026-09-01 23:40:58 | -22.80675 | -43.21114 | 95° | 60km/h | 2412m | 5.8m/s | 9.7°C | 74.4% | 761.5hPa | 0V | 00:00:00 | 00:00:00 | 00:00:00 | |
| PU1XMG-16 | 2026-09-01 23:40:53 | -22.80671 | -43.21199 | 93° | 57km/h | 2386m | 5.2m/s | 9.3°C | 81.1% | 763.9hPa | 0V | 00:00:00 | 00:00:00 | 00:00:00 | |
| PU1XMG-16 | 2026-09-01 23:40:48 | -22.80677 | -43.21285 | 82° | 64km/h | 2356m | 4.6m/s | 9.3°C | 80.6% | 766.6hPa | 0V | 00:00:00 | 00:00:00 | 00:00:00 | |
| PU1XMG-16 | 2026-09-01 23:40:42 | -22.80684 | -43.21383 | 89° | 58km/h | 2316m | 8.3m/s | 9.6°C | 78.9% | 770.1hPa | 0V | 00:00:00 | 00:00:00 | 00:00:00 | |
| PU1XMG-16 | 2026-09-01 23:40:37 | -22.80682 | -43.21459 | 94° | 55km/h | 2284m | 7.3m/s | 9.8°C | 76.1% | 773.1hPa | 0V | 00:00:00 | 00:00:00 | 00:00:00 | |
| PU1XMG-16 | 2026-09-01 23:40:31 | -22.80681 | -43.21531 | 91° | 55km/h | 2252m | 8.2m/s | 10.0°C | 77.5% | 776.1hPa | 0V | 00:00:00 | 00:00:00 | 00:00:00 | |
| PU1XMG-16 | 2026-09-01 23:40:27 | -22.80687 | -43.21609 | 83° | 58km/h | 2219m | 8.1m/s | 10.2°C | 77.6% | 779.2hPa | 0V | 00:00:00 | 00:00:00 | 00:00:00 | |
| PU1XMG-16 | 2026-09-01 23:40:21 | -22.80697 | -43.21683 | 84° | 49km/h | 2188m | 7.0m/s | 10.1°C | 82.0% | 782.2hPa | 0V | 00:00:00 | 00:00:00 | 00:00:00 | |
| PU1XMG-16 | 2026-09-01 23:40:15 | -22.80706 | -43.21773 | 87° | 55km/h | 2146m | 8.2m/s | 10.2°C | 83.3% | 786.1hPa | 0V | 00:00:00 | 00:00:00 | 00:00:00 | |
| PU1XMG-16 | 2026-09-01 23:40:10 | -22.80710 | -43.21851 | 88° | 55km/h | 2110m | 7.0m/s | 10.2°C | 84.8% | 789.4hPa | 0V | 00:00:00 | 00:00:00 | 00:00:00 | |
| PU1XMG-16 | 2026-09-01 23:40:05 | -22.80712 | -43.21927 | 88° | 53km/h | 2075m | 7.1m/s | 10.4°C | 87.0% | 792.5hPa | 0V | 00:00:00 | 00:00:00 | 00:00:00 | |
| PU1XMG-16 | 2026-09-01 23:40:00 | -22.80710 | -43.22005 | 96° | 57km/h | 2044m | 7.5m/s | 10.6°C | 88.0% | 795.4hPa | 0V | 00:00:00 | 00:00:00 | 00:00:00 | |
| PU1XMG-16 | 2026-09-01 23:39:54 | -22.80706 | -43.22100 | 93° | 57km/h | 2003m | 6.0m/s | 11.0°C | 86.8% | 799.4hPa | 0V | 00:00:00 | 00:00:00 | 00:00:00 | |
| PU1XMG-16 | 2026-09-01 23:39:49 | -22.80701 | -43.22179 | 94° | 58km/h | 1969m | 6.7m/s | 11.2°C | 86.8% | 802.6hPa | 0V | 00:00:00 | 00:00:00 | 00:00:00 | |
| PU1XMG-16 | 2026-09-01 23:39:45 | -22.80694 | -43.22266 | 96° | 62km/h | 1934m | 7.4m/s | 11.4°C | 87.9% | 806.0hPa | 0V | 00:00:00 | 00:00:00 | 00:00:00 | |
| PU1XMG-16 | 2026-09-01 23:39:38 | -22.80680 | -43.22362 | 102° | 58km/h | 1894m | 8.1m/s | 11.8°C | 88.3% | 809.8hPa | 0V | 00:00:00 | 00:00:00 | 00:00:00 | |
| PU1XMG-16 | 2026-09-01 23:39:33 | -22.80666 | -43.22446 | 99° | 51km/h | 1852m | 6.7m/s | 12.1°C | 87.7% | 814.2hPa | 0V | 00:00:00 | 00:00:00 | 00:00:00 | |
| PU1XMG-16 | 2026-09-01 23:39:27 | -22.80651 | -43.22532 | 105° | 53km/h | 1807m | 6.8m/s | 11.9°C | 96.6% | 818.4hPa | 0V | 00:00:00 | 00:00:00 | 00:00:00 | |
| PU1XMG-16 | 2026-09-01 23:39:21 | -22.80636 | -43.22602 | 100° | 53km/h | 1772m | 7.4m/s | 12.1°C | 94.8% | 822.0hPa | 0V | 00:00:00 | 00:00:00 | 00:00:00 | |
| PU1XMG-16 | 2026-09-01 23:39:15 | -22.80622 | -43.22682 | 101° | 47km/h | 1729m | 6.1m/s | 12.3°C | 94.1% | 826.3hPa | 0V | 00:00:00 | 00:00:00 | 00:00:00 | |
| PU1XMG-16 | 2026-09-01 23:39:10 | -22.80611 | -43.22743 | 100° | 46km/h | 1692m | 8.3m/s | 12.4°C | 97.0% | 829.9hPa | 0V | 00:00:00 | 00:00:00 | 00:00:00 | |
| PU1XMG-16 | 2026-09-01 23:39:05 | -22.80607 | -43.22806 | 91° | 46km/h | 1656m | 9.5m/s | 12.8°C | 93.0% | 833.3hPa | 0V | 00:00:00 | 00:00:00 | 00:00:00 | |
| PU1XMG-16 | 2026-09-01 23:39:00 | -22.80603 | -43.22867 | 97° | 46km/h | 1617m | 8.7m/s | 13.0°C | 92.6% | 836.9hPa | 0V | 00:00:00 | 00:00:00 | 00:00:00 | |
| PU1XMG-16 | 2026-09-01 23:38:54 | -22.80595 | -43.22940 | 95° | 40km/h | 1573m | 5.2m/s | 13.4°C | 87.5% | 841.2hPa | 0V | 00:00:00 | 00:00:00 | 00:00:00 | |
| PU1XMG-16 | 2026-09-01 23:38:49 | -22.80590 | -43.22996 | 96° | 40km/h | 1540m | 5.6m/s | 13.7°C | 86.4% | 844.6hPa | 0V | 00:00:00 | 00:00:00 | 00:00:00 | |
| PU1XMG-16 | 2026-09-01 23:38:45 | -22.80586 | -43.23051 | 93° | 40km/h | 1504m | 6.7m/s | 13.9°C | 86.4% | 848.2hPa | 0V | 00:00:00 | 00:00:00 | 00:00:00 | |
| PU1XMG-16 | 2026-09-01 23:38:40 | -22.80584 | -43.23105 | 97° | 44km/h | 1470m | 5.5m/s | 13.9°C | 92.4% | 851.6hPa | 0V | 00:00:00 | 00:00:00 | 00:00:00 | |
| PU1XMG-16 | 2026-09-01 23:38:33 | -22.80577 | -43.23175 | 100° | 40km/h | 1427m | 6.0m/s | 14.0°C | 96.3% | 856.0hPa | 0V | 00:00:00 | 00:00:00 | 00:00:00 | |
| PU1XMG-16 | 2026-09-01 23:38:29 | -22.80571 | -43.23229 | 99° | 38km/h | 1393m | 7.6m/s | 14.2°C | 96.7% | 859.6hPa | 0V | 00:00:00 | 00:00:00 | 00:00:00 | |
| PU1XMG-16 | 2026-09-01 23:38:24 | -22.80565 | -43.23281 | 103° | 35km/h | 1359m | 7.1m/s | 14.5°C | 96.7% | 863.0hPa | 0V | 00:00:00 | 00:00:00 | 00:00:00 | |
| PU1XMG-16 | 2026-09-01 23:38:19 | -22.80555 | -43.23323 | 103° | 31km/h | 1323m | 7.9m/s | 14.7°C | 96.7% | 866.5hPa | 0V | 00:00:00 | 00:00:00 | 00:00:00 | |
| PU1XMG-16 | 2026-09-01 23:38:14 | -22.80550 | -43.23363 | 94° | 35km/h | 1290m | 6.9m/s | 15.0°C | 95.8% | 869.9hPa | 0V | 00:00:00 | 00:00:00 | 00:00:00 | |
| PU1XMG-16 | 2026-09-01 23:38:07 | -22.80543 | -43.23424 | 100° | 38km/h | 1247m | 8.2m/s | 15.4°C | 94.2% | 874.4hPa | 0V | 00:00:00 | 00:00:00 | 00:00:00 | |
| PU1XMG-16 | 2026-09-01 23:38:01 | -22.80530 | -43.23488 | 106° | 42km/h | 1205m | 7.2m/s | 15.7°C | 92.9% | 878.6hPa | 0V | 00:00:00 | 00:00:00 | 00:00:00 | |
| PU1XMG-16 | 2026-09-01 23:37:56 | -22.80519 | -43.23538 | 102° | 37km/h | 1175m | 7.1m/s | 16.0°C | 92.2% | 881.9hPa | 0V | 00:00:00 | 00:00:00 | 00:00:00 | |
| PU1XMG-16 | 2026-09-01 23:37:50 | -22.80506 | -43.23597 | 107° | 37km/h | 1136m | 6.7m/s | 16.3°C | 90.6% | 886.0hPa | 0V | 00:00:00 | 00:00:00 | 00:00:00 | |
| PU1XMG-16 | 2026-09-01 23:37:45 | -22.80497 | -43.23643 | 99° | 33km/h | 1101m | 6.0m/s | 16.6°C | 90.2% | 889.7hPa | 0V | 00:00:00 | 00:00:00 | 00:00:00 | |
| PU1XMG-16 | 2026-09-01 23:37:40 | -22.80486 | -43.23700 | 102° | 40km/h | 1063m | 8.5m/s | 16.9°C | 89.3% | 893.9hPa | 0V | 00:00:00 | 00:00:00 | 00:00:00 | |
| PU1XMG-16 | 2026-09-01 23:37:35 | -22.80475 | -43.23750 | 106° | 37km/h | 1027m | 8.6m/s | 17.1°C | 89.7% | 897.4hPa | 0V | 00:00:00 | 00:00:00 | 00:00:00 | |
| PU1XMG-16 | 2026-09-01 23:37:28 | -22.80466 | -43.23809 | 98° | 38km/h | 983m | 7.2m/s | 17.3°C | 90.6% | 901.9hPa | 0V | 00:00:00 | 00:00:00 | 00:00:00 | |
| PU1XMG-16 | 2026-09-01 23:37:23 | -22.80461 | -43.23854 | 99° | 31km/h | 950m | 6.3m/s | 17.5°C | 89.8% | 905.2hPa | 0V | 00:00:00 | 00:00:00 | 00:00:00 | |
| PU1XMG-16 | 2026-09-01 23:37:17 | -22.80460 | -43.23906 | 88° | 33km/h | 912m | 9.5m/s | 17.8°C | 88.8% | 909.5hPa | 0V | 00:00:00 | 00:00:00 | 00:00:00 | |
| PU1XMG-16 | 2026-09-01 23:37:12 | -22.80462 | -43.23948 | 82° | 31km/h | 877m | 5.4m/s | 18.1°C | 87.6% | 913.1hPa | 0V | 00:00:00 | 00:00:00 | 00:00:00 | |
| PU1XMG-16 | 2026-09-01 23:37:06 | -22.80466 | -43.23994 | 88° | 26km/h | 839m | 5.2m/s | 18.3°C | 0% | 0hPa | 0V | 00:00:00 | 00:00:00 | 00:00:00 | |
| PU1XMG-16 | 2026-09-01 23:37:02 | -22.80472 | -43.24031 | 77° | 31km/h | 810m | 5.9m/s | 18.6°C | 0% | 0hPa | 0V | 00:00:00 | 00:00:00 | 00:00:00 | |
| PU1XMG-16 | 2026-09-01 23:36:55 | -22.80482 | -43.24076 | 79° | 29km/h | 775m | 7.4m/s | 18.9°C | 0% | 0hPa | 0V | 00:00:00 | 00:00:00 | 00:00:00 | |
| PU1XMG-16 | 2026-09-01 23:36:50 | -22.80490 | -43.24117 | 81° | 31km/h | 745m | 5.2m/s | 19.1°C | 0% | 0hPa | 0V | 00:00:00 | 00:00:00 | 00:00:00 | |
| PU1XMG-16 | 2026-09-01 23:36:46 | -22.80499 | -43.24156 | 77° | 29km/h | 716m | 7.6m/s | 19.4°C | 0% | 0hPa | 0V | 00:00:00 | 00:00:00 | 00:00:00 | |
| PU1XMG-16 | 2026-09-01 23:36:41 | -22.80505 | -43.24198 | 79° | 31km/h | 685m | 6.1m/s | 0°C | 0% | 0hPa | 0V | 00:00:00 | 00:00:00 | 00:00:00 | |
| PU1XMG-16 | 2026-09-01 23:36:35 | -22.80519 | -43.24249 | 75° | 29km/h | 649m | 7.0m/s | 0°C | 0% | 0hPa | 0V | 00:00:00 | 00:00:00 | 00:00:00 | |
| PU1XMG-16 | 2026-09-01 23:36:29 | -22.80530 | -43.24298 | 73° | 33km/h | 615m | 7.4m/s | 0°C | 0% | 0hPa | 0V | 00:00:00 | 00:00:00 | 00:00:00 | |
| PU1XMG-16 | 2026-09-01 23:36:22 | -22.80553 | -43.24348 | 65° | 35km/h | 581m | 5.0m/s | 0°C | 0% | 0hPa | 0V | 00:00:00 | 00:00:00 | 00:00:00 | |
| PU1XMG-16 | 2026-09-01 23:36:09 | -22.80595 | -43.24469 | 63° | 37km/h | 500m | 6.1m/s | 0°C | 0% | 0hPa | 0V | 00:00:00 | 00:00:00 | 00:00:00 | |
| PU1XMG-16 | 2026-09-01 23:36:03 | -22.80616 | -43.24519 | 69° | 42km/h | 470m | 8.7m/s | 0°C | 0% | 0hPa | 0V | 00:00:00 | 00:00:00 | 00:00:00 |